createdAt,value
2018-04-06T15:16:41.447Z,17.15
2018-04-06T15:19:08.836Z,17.24
2018-04-06T15:21:35.561Z,17.29
2018-04-06T15:24:02.201Z,17.34
2018-04-06T15:26:29.048Z,17.36
2018-04-06T15:28:55.701Z,17.39
2018-04-06T15:31:22.346Z,17.43
2018-04-06T15:33:48.974Z,17.45
2018-04-06T15:36:15.624Z,17.49
2018-04-06T15:38:42.254Z,17.52
2018-04-06T15:41:09.743Z,17.56
2018-04-06T15:43:36.400Z,17.59
2018-04-06T15:46:03.789Z,17.61
2018-04-06T15:48:30.427Z,17.62
2018-04-06T15:50:57.113Z,17.66
2018-04-06T15:53:23.793Z,17.69
2018-04-06T15:55:50.416Z,17.69
2018-04-06T15:58:17.799Z,17.72
2018-04-06T16:00:44.513Z,17.71
2018-04-06T16:03:11.193Z,17.74
2018-04-06T16:05:38.649Z,17.74
2018-04-06T16:08:05.333Z,17.75
2018-04-06T16:10:32.828Z,17.78
2018-04-06T16:12:59.515Z,17.78
2018-04-06T16:15:26.414Z,17.78
2018-04-06T16:17:53.379Z,17.78
2018-04-06T16:20:20.135Z,17.78
2018-04-06T16:22:46.865Z,17.77
2018-04-06T16:25:13.659Z,17.78
2018-04-06T16:27:40.386Z,17.78
2018-04-06T16:30:07.120Z,17.77
2018-04-06T16:32:33.959Z,17.78
2018-04-06T16:35:01.334Z,17.79
2018-04-06T16:37:27.954Z,17.79
2018-04-06T16:39:55.352Z,17.78
2018-04-06T16:42:22.033Z,17.78
2018-04-06T16:44:49.386Z,17.79
2018-04-06T16:47:16.741Z,17.77
2018-04-06T16:49:44.098Z,17.79
2018-04-06T16:52:11.453Z,17.78
2018-04-06T16:54:38.813Z,17.80
2018-04-06T16:57:06.201Z,17.79
2018-04-06T16:59:32.818Z,17.79
2018-04-06T17:01:59.492Z,17.79
2018-04-06T17:04:26.222Z,17.79
2018-04-06T17:06:52.961Z,17.77
2018-04-06T17:09:19.587Z,17.79
2018-04-06T17:11:46.246Z,17.79
2018-04-06T17:14:12.879Z,17.79
2018-04-06T17:16:39.538Z,17.77
2018-04-06T17:19:06.198Z,17.77
2018-04-06T17:21:33.548Z,17.78
2018-04-06T17:24:00.913Z,17.76
2018-04-06T17:26:28.292Z,17.78
2018-04-06T17:28:54.925Z,17.76
2018-04-06T17:31:21.537Z,17.76
2018-04-06T17:33:48.899Z,17.76
2018-04-06T17:36:16.313Z,17.78
2018-04-06T17:38:42.986Z,17.77
2018-04-06T17:41:10.375Z,17.78
2018-04-06T17:43:37.107Z,17.77
2018-04-06T17:46:04.470Z,17.78
2018-04-06T17:48:31.105Z,17.75
2018-04-06T17:50:57.760Z,17.76
2018-04-06T17:53:24.378Z,17.75
2018-04-06T17:55:51.049Z,17.75
2018-04-06T17:58:17.683Z,17.75
2018-04-06T18:00:44.298Z,17.77
2018-04-06T18:03:10.918Z,17.77
2018-04-06T18:05:37.598Z,17.76
2018-04-06T18:08:04.246Z,17.77
2018-04-06T18:10:30.865Z,17.76
2018-04-06T18:12:57.485Z,17.77
2018-04-06T18:15:24.141Z,17.78
2018-04-06T18:17:50.758Z,17.77
2018-04-06T18:20:17.385Z,17.78
2018-04-06T18:22:44.086Z,17.78
2018-04-06T18:25:11.466Z,17.79
2018-04-06T18:27:38.168Z,17.78
2018-04-06T18:30:04.807Z,17.79
2018-04-06T18:32:32.173Z,17.78
2018-04-06T18:34:59.566Z,17.78
2018-04-06T18:37:26.193Z,17.80
2018-04-06T18:39:52.898Z,17.78
2018-04-06T18:42:20.296Z,17.78
2018-04-06T18:44:47.014Z,17.79
2018-04-06T18:47:14.432Z,17.79
2018-04-06T18:49:41.881Z,17.79
2018-04-06T18:52:08.596Z,17.80
2018-04-06T18:54:35.321Z,17.79
2018-04-06T18:57:02.029Z,17.80
2018-04-06T18:59:29.626Z,17.81
2018-04-06T19:01:56.440Z,17.79
2018-04-06T19:04:23.141Z,17.79
2018-04-06T19:06:49.823Z,17.80
2018-04-06T19:09:16.514Z,17.78
2018-04-06T19:11:43.212Z,17.78
2018-04-06T19:14:09.917Z,17.78
2018-04-06T19:16:37.363Z,17.78
2018-04-06T19:19:05.666Z,17.77
2018-04-06T19:21:32.369Z,17.77
2018-04-06T19:23:59.213Z,17.77
2018-04-06T19:26:26.681Z,17.78
2018-04-06T19:28:54.093Z,17.76
2018-04-06T19:31:20.781Z,17.76
2018-04-06T19:33:47.481Z,17.77
2018-04-06T19:36:14.226Z,17.75
2018-04-06T19:38:40.986Z,17.74
2018-04-06T19:41:08.428Z,17.76
2018-04-06T19:43:35.184Z,17.75
2018-04-06T19:46:02.613Z,17.75
2018-04-06T19:48:29.298Z,17.76
2018-04-06T19:50:55.987Z,17.74
2018-04-06T19:53:22.676Z,17.75
2018-04-06T19:55:49.386Z,17.73
2018-04-06T19:58:16.817Z,17.75
2018-04-06T20:00:43.581Z,17.74
2018-04-06T20:03:11.953Z,17.73
2018-04-06T20:05:53.721Z,17.73
2018-04-06T20:08:20.466Z,17.73
2018-04-06T20:10:47.333Z,17.73
2018-04-06T20:13:14.906Z,17.73
2018-04-06T20:15:42.306Z,17.72
2018-04-06T20:18:09.000Z,17.72
2018-04-06T20:20:36.373Z,17.71
2018-04-06T20:23:03.024Z,17.71
2018-04-06T20:25:29.648Z,17.71
2018-04-06T20:27:56.265Z,17.70
2018-04-06T20:30:23.633Z,17.71
2018-04-06T20:32:50.260Z,17.70
2018-04-06T20:35:17.754Z,17.70
2018-04-06T20:37:44.494Z,17.69
2018-04-06T20:40:11.133Z,17.69
2018-04-06T20:42:37.748Z,17.68
2018-04-06T20:45:04.366Z,17.67
2018-04-06T20:47:31.794Z,17.68
2018-04-06T20:49:58.433Z,17.67
2018-04-06T20:52:25.068Z,17.66
2018-04-06T20:54:53.174Z,17.67
2018-04-06T20:57:19.821Z,17.66
2018-04-06T20:59:46.481Z,17.66
2018-04-06T21:02:13.126Z,17.67
2018-04-06T21:04:39.746Z,17.66
2018-04-06T21:07:06.387Z,17.66
2018-04-06T21:09:33.033Z,17.67
2018-04-06T21:11:59.663Z,17.67
2018-04-06T21:14:26.341Z,17.68
2018-04-06T21:16:53.024Z,17.67
2018-04-06T21:19:19.716Z,17.68
2018-04-06T21:21:46.465Z,17.69
2018-04-06T21:24:13.906Z,17.68
2018-04-06T21:26:40.669Z,17.69
2018-04-06T21:29:08.080Z,17.68
2018-04-06T21:31:34.826Z,17.67
2018-04-06T21:34:01.506Z,17.67
2018-04-06T21:36:28.941Z,17.68
2018-04-06T21:38:55.615Z,17.68
2018-04-06T21:41:22.327Z,17.67
2018-04-06T21:43:49.836Z,17.68
2018-04-06T21:46:16.575Z,17.68
2018-04-06T21:48:43.273Z,17.66
2018-04-06T21:51:10.729Z,17.67
2018-04-06T21:53:37.468Z,17.66
2018-04-06T21:56:04.947Z,17.66
2018-04-06T21:58:31.660Z,17.66
2018-04-06T22:00:59.120Z,17.66
2018-04-06T22:03:26.617Z,17.66
2018-04-06T22:05:53.403Z,17.64
2018-04-06T22:08:20.846Z,17.65
2018-04-06T22:10:47.578Z,17.64
2018-04-06T22:13:15.080Z,17.64
2018-04-06T22:15:41.761Z,17.64
2018-04-06T22:18:08.483Z,17.64
2018-04-06T22:20:35.165Z,17.63
2018-04-06T22:23:01.911Z,17.64
2018-04-06T22:25:29.333Z,17.64
2018-04-06T22:27:56.160Z,17.62
2018-04-06T22:30:22.848Z,17.63
2018-04-06T22:32:50.283Z,17.62
2018-04-06T22:35:16.995Z,17.62
2018-04-06T22:37:43.693Z,17.60
2018-04-06T22:40:11.206Z,17.61
2018-04-06T22:42:37.936Z,17.60
2018-04-06T22:45:04.627Z,17.61
2018-04-06T22:47:32.126Z,17.60
2018-04-06T22:49:58.823Z,17.59
2018-04-06T22:52:26.226Z,17.59
2018-04-06T22:54:52.948Z,17.59
2018-04-06T22:57:19.621Z,17.59
2018-04-06T22:59:46.306Z,17.59
2018-04-06T23:02:12.996Z,17.58
2018-04-06T23:04:39.663Z,17.58
2018-04-06T23:07:07.126Z,17.59
2018-04-06T23:09:34.545Z,17.59
2018-04-06T23:12:01.221Z,17.58
2018-04-06T23:14:27.918Z,17.58
2018-04-06T23:16:54.587Z,17.57
2018-04-06T23:19:21.994Z,17.58
2018-04-06T23:21:48.679Z,17.59
2018-04-06T23:24:16.133Z,17.58
2018-04-06T23:26:43.566Z,17.59
2018-04-06T23:29:10.245Z,17.59
2018-04-06T23:31:36.925Z,17.58
2018-04-06T23:34:03.668Z,17.59
2018-04-06T23:36:30.365Z,17.59
2018-04-06T23:38:57.042Z,17.59
2018-04-06T23:41:23.705Z,17.59
2018-04-06T23:43:50.385Z,17.60
2018-04-06T23:46:17.092Z,17.60
2018-04-06T23:48:44.653Z,17.60
2018-04-06T23:51:12.063Z,17.60
2018-04-06T23:53:38.756Z,17.61
2018-04-06T23:56:06.169Z,17.60
2018-04-06T23:58:32.841Z,17.59
